Pagrindinis puslapis
METAR-TAF:

METAR-TAF

Oro uostai :

Ribeiran Pretas, San Paulas, Brazilija

platuma: 21-08S, ilguma: 047-47W, Aukštis: 549 m

Dabartinis oras

Ataskaita buvo paskelbta 1 valandą ir 4 minutes, ne 04:00 UTC
Vėjas 3 kt iš Šiaurės Rytų
Temperatūra 13°C
Drėgmė 58%
Slėgis 1025 hPa
Matomumas 10 km arba daugiau
nėra debesų žemiau 1500 m ir nėra kamuolinių lietaus debesų

METAR: SBRP 010400Z 04003KT CAVOK 13/05 Q1025

Laikas: 02:04 (05:04 UTC)

Prognozė

Ataskaita buvo paskelbta 7 valandos ir 36 minutes, ne 21:28 UTC
Prognozė galioja nuo 01 metu 00 UTC su 01 metu 12 UTC
Vėjas 6 kt iš Rytų/Pietryčių
Matomumas 10 km arba daugiau
nėra debesų žemiau 1500 m ir nėra kamuolinių lietaus debesų

TAF: SBRP 312128Z 0100/0112 12006KT CAVOK TX20/0100Z TN10/0110Z RMK PGM

Orai ataskaitas ir orų prognozės (METAR, TAF).

turimą stotys yra geltonos ir raudonos taškus žemėlapyje.

Perkelti pele per norėdami pamatyti stoties vardą.

Tada spustelėkite, norėdami matyti oro stebėjimo ir prognozės.

Norėdami pakeisti žemėlapį: spustelėkite ant žalios mygtukų su juodo kryžiaus žemyn,; žalią mygtuką su brūkšneliu, jei norite nutolinti; arba žalių rodyklių gretimoms žemėlapius.


METAR-TAF: